createdAt,value
2022-11-27T00:01:39.638Z,0.50
2022-11-27T00:06:41.279Z,0.50
2022-11-27T00:11:40.851Z,0.50
2022-11-27T00:16:40.480Z,0.50
2022-11-27T00:21:40.618Z,0.50
2022-11-27T00:26:39.127Z,0.42
2022-11-27T00:31:41.151Z,0.40
2022-11-27T00:36:43.921Z,0.40
2022-11-27T00:41:46.418Z,0.40
2022-11-27T00:46:45.709Z,0.50
2022-11-27T00:51:45.564Z,0.50
2022-11-27T00:56:45.162Z,0.50
2022-11-27T01:01:47.467Z,0.50
2022-11-27T01:06:47.036Z,0.50
2022-11-27T01:11:46.583Z,0.50
2022-11-27T01:16:46.887Z,0.46
2022-11-27T01:21:46.231Z,0.46
2022-11-27T01:26:46.835Z,0.50
2022-11-27T01:31:45.260Z,0.50
2022-11-27T01:36:44.534Z,0.50
2022-11-27T01:41:43.799Z,0.60
2022-11-27T01:46:48.092Z,0.60
2022-11-27T01:51:52.322Z,0.60
2022-11-27T01:56:56.762Z,0.62
2022-11-27T02:01:55.112Z,0.66
2022-11-27T02:06:55.386Z,0.70
2022-11-27T02:12:04.991Z,0.76
2022-11-27T02:17:14.821Z,0.80
2022-11-27T02:22:33.527Z,0.78
2022-11-27T02:28:17.212Z,0.70
2022-11-27T02:33:22.084Z,0.70
2022-11-27T02:38:29.314Z,0.70
2022-11-27T02:43:36.354Z,0.80
2022-11-27T02:48:41.034Z,0.80
2022-11-27T02:53:47.085Z,0.80
2022-11-27T02:58:49.080Z,0.90
2022-11-27T03:03:56.417Z,0.90
2022-11-27T03:09:04.003Z,0.90
2022-11-27T03:14:08.338Z,0.98
2022-11-27T03:19:18.220Z,1.00
2022-11-27T03:24:17.577Z,1.00
2022-11-27T03:29:21.713Z,0.90
2022-11-27T03:34:21.353Z,0.90
2022-11-27T03:39:20.576Z,0.90
2022-11-27T03:44:31.311Z,1.00
2022-11-27T03:49:51.102Z,1.00
2022-11-27T03:55:03.460Z,1.00
2022-11-27T04:00:08.607Z,1.00
2022-11-27T04:05:09.047Z,1.02
2022-11-27T04:10:11.807Z,1.10
2022-11-27T04:15:13.995Z,1.08
2022-11-27T04:20:17.617Z,1.08
2022-11-27T04:25:16.880Z,1.02
2022-11-27T04:30:18.915Z,1.00
2022-11-27T04:35:17.997Z,1.00
2022-11-27T04:40:18.258Z,1.04
2022-11-27T04:45:19.539Z,1.10
2022-11-27T04:50:18.832Z,1.10
2022-11-27T04:55:18.131Z,1.10
2022-11-27T05:00:19.384Z,1.10
2022-11-27T05:05:18.989Z,1.10
2022-11-27T05:10:19.773Z,1.10
2022-11-27T05:15:19.033Z,1.12
2022-11-27T05:20:20.206Z,1.10
2022-11-27T05:25:20.693Z,1.08
2022-11-27T05:30:20.771Z,1.00
2022-11-27T05:35:20.420Z,1.00
2022-11-27T05:40:19.920Z,1.00
2022-11-27T05:45:19.411Z,1.00
2022-11-27T05:50:18.646Z,1.00
2022-11-27T05:55:17.513Z,1.10
2022-11-27T06:00:19.942Z,1.10
2022-11-27T06:05:18.719Z,1.10
2022-11-27T06:10:18.708Z,1.20
2022-11-27T06:15:17.573Z,1.20
2022-11-27T06:20:20.377Z,1.20
2022-11-27T06:25:19.323Z,1.20
2022-11-27T06:30:20.371Z,1.20
2022-11-27T06:35:19.896Z,1.30
2022-11-27T06:40:20.488Z,1.30
2022-11-27T06:45:19.243Z,1.40
2022-11-27T06:50:18.895Z,1.40
2022-11-27T06:55:17.554Z,1.50
2022-11-27T07:00:19.917Z,1.58
2022-11-27T07:05:19.060Z,1.56
2022-11-27T07:10:18.351Z,1.60
2022-11-27T07:15:17.833Z,1.60
2022-11-27T07:20:17.385Z,1.60
2022-11-27T07:25:16.910Z,1.62
2022-11-27T07:30:18.120Z,1.70
2022-11-27T07:35:17.768Z,1.70
2022-11-27T07:40:18.797Z,1.70
2022-11-27T07:45:18.164Z,1.80
2022-11-27T07:50:18.180Z,1.80
2022-11-27T07:55:17.975Z,1.78
2022-11-27T08:00:20.832Z,1.70
2022-11-27T08:05:19.359Z,1.76
2022-11-27T08:10:18.946Z,1.80
2022-11-27T08:15:18.136Z,1.88
2022-11-27T08:20:19.813Z,1.92
2022-11-27T08:25:19.020Z,2.00
2022-11-27T08:30:19.183Z,2.00
2022-11-27T08:35:18.513Z,2.00
2022-11-27T08:40:19.662Z,2.10
2022-11-27T08:45:19.429Z,2.20
2022-11-27T08:50:21.694Z,2.26
2022-11-27T08:55:21.147Z,2.30
2022-11-27T09:00:27.950Z,2.38
2022-11-27T09:05:27.202Z,2.40
2022-11-27T09:10:27.552Z,2.40
2022-11-27T09:15:26.738Z,2.50
2022-11-27T09:20:25.831Z,2.50
2022-11-27T09:25:24.687Z,2.60
2022-11-27T09:30:24.371Z,2.70
2022-11-27T09:35:24.067Z,2.80
2022-11-27T09:40:23.825Z,2.80
2022-11-27T09:45:25.754Z,2.90
2022-11-27T09:50:30.975Z,2.80
2022-11-27T09:55:39.081Z,2.70
2022-11-27T10:00:38.128Z,2.70
2022-11-27T10:05:46.474Z,2.74
2022-11-27T10:10:59.600Z,2.80
2022-11-27T10:16:07.618Z,2.90
2022-11-27T10:21:19.998Z,3.00
2022-11-27T10:26:26.439Z,3.10
2022-11-27T10:31:38.110Z,3.10
2022-11-27T10:36:47.714Z,3.20
2022-11-27T10:42:00.875Z,3.30
2022-11-27T10:47:03.701Z,3.40
2022-11-27T10:52:04.350Z,3.40
2022-11-27T10:57:52.727Z,3.50
2022-11-27T11:03:00.583Z,3.60
2022-11-27T11:08:05.592Z,3.62
2022-11-27T11:13:22.121Z,3.60
2022-11-27T11:18:25.349Z,3.60
2022-11-27T11:23:34.025Z,3.70
2022-11-27T11:28:39.571Z,3.70
2022-11-27T11:33:55.635Z,3.70
2022-11-27T11:38:55.508Z,3.70
2022-11-27T11:44:08.504Z,3.60
2022-11-27T11:49:19.816Z,3.60
2022-11-27T11:54:35.701Z,3.70
2022-11-27T11:59:49.871Z,3.68
2022-11-27T12:05:17.555Z,3.70
2022-11-27T12:10:25.814Z,3.72
2022-11-27T12:15:33.520Z,3.80
2022-11-27T12:20:48.813Z,3.80
2022-11-27T12:25:59.168Z,3.80
2022-11-27T12:31:15.369Z,3.80
2022-11-27T12:36:33.644Z,3.80
2022-11-27T12:41:57.692Z,3.90
2022-11-27T12:47:05.326Z,3.90
2022-11-27T12:52:16.069Z,4.00
2022-11-27T12:57:23.895Z,3.98
2022-11-27T13:02:40.025Z,3.96
2022-11-27T13:07:48.998Z,3.94
2022-11-27T13:12:56.025Z,4.00
2022-11-27T13:18:06.235Z,4.00
2022-11-27T13:23:08.057Z,4.08
2022-11-27T13:28:14.674Z,4.10
2022-11-27T13:33:38.845Z,4.10
2022-11-27T13:38:42.109Z,4.20
2022-11-27T13:43:48.533Z,4.20
2022-11-27T13:48:56.222Z,4.20
2022-11-27T13:54:07.725Z,4.20
2022-11-27T13:59:21.704Z,4.20
2022-11-27T14:04:21.002Z,4.20
2022-11-27T14:09:20.108Z,4.20
2022-11-27T14:14:33.839Z,4.20
2022-11-27T14:19:43.085Z,4.20
2022-11-27T14:24:46.840Z,4.20
2022-11-27T14:29:46.684Z,4.20
2022-11-27T14:34:47.967Z,4.20
2022-11-27T14:39:47.886Z,4.20
2022-11-27T14:44:47.988Z,4.20
2022-11-27T14:49:50.596Z,4.20
2022-11-27T14:54:58.711Z,4.20
2022-11-27T15:00:20.737Z,4.10
2022-11-27T15:05:27.804Z,4.10
2022-11-27T15:10:35.991Z,4.10
2022-11-27T15:15:46.430Z,4.08
2022-11-27T15:20:48.810Z,4.00
2022-11-27T15:25:50.946Z,3.92
2022-11-27T15:30:51.465Z,3.90
2022-11-27T15:35:53.913Z,3.80
2022-11-27T15:41:02.649Z,3.78
2022-11-27T15:46:06.078Z,3.70
2022-11-27T15:51:07.576Z,3.70
2022-11-27T15:56:07.199Z,3.74
2022-11-27T16:01:09.414Z,3.80
2022-11-27T16:06:11.303Z,3.80
2022-11-27T16:11:14.951Z,3.80
2022-11-27T16:16:14.540Z,3.90
2022-11-27T16:21:18.050Z,3.90
2022-11-27T16:26:18.276Z,3.90
2022-11-27T16:31:19.424Z,3.90
2022-11-27T16:36:22.609Z,3.90
2022-11-27T16:41:25.476Z,3.90
2022-11-27T16:46:30.041Z,3.90
2022-11-27T16:51:33.865Z,3.80
2022-11-27T16:56:38.944Z,3.80
2022-11-27T17:01:41.389Z,3.78
2022-11-27T17:06:43.353Z,3.80
2022-11-27T17:11:49.923Z,3.80
2022-11-27T17:16:51.136Z,3.80
2022-11-27T17:21:52.140Z,3.78
2022-11-27T17:26:55.532Z,3.70
2022-11-27T17:32:02.158Z,3.60
2022-11-27T17:37:03.072Z,3.60
2022-11-27T17:42:02.911Z,3.60
2022-11-27T17:47:05.727Z,3.54
2022-11-27T17:52:08.174Z,3.50
2022-11-27T17:57:10.645Z,3.50
2022-11-27T18:02:13.318Z,3.50
2022-11-27T18:07:14.171Z,3.50
2022-11-27T18:12:14.760Z,3.50
2022-11-27T18:17:17.757Z,3.50
2022-11-27T18:22:18.211Z,3.50
2022-11-27T18:27:18.146Z,3.50
2022-11-27T18:32:20.462Z,3.50
2022-11-27T18:37:19.889Z,3.58
2022-11-27T18:42:19.595Z,3.60
2022-11-27T18:47:19.978Z,3.60
2022-11-27T18:52:19.607Z,3.60
2022-11-27T18:57:20.407Z,3.60
2022-11-27T19:02:21.088Z,3.62
2022-11-27T19:07:21.490Z,3.62
2022-11-27T19:12:23.001Z,3.70
2022-11-27T19:17:29.419Z,3.70
2022-11-27T19:22:37.359Z,3.70
2022-11-27T19:27:41.307Z,3.70
2022-11-27T19:32:50.335Z,3.78
2022-11-27T19:37:57.887Z,3.72
2022-11-27T19:43:06.775Z,3.70
2022-11-27T19:48:17.525Z,3.60
2022-11-27T19:53:29.164Z,3.60
2022-11-27T19:58:42.819Z,3.60
2022-11-27T20:03:49.489Z,3.50
2022-11-27T20:08:52.463Z,3.50
2022-11-27T20:13:52.707Z,3.40
2022-11-27T20:18:53.489Z,3.40
2022-11-27T20:24:03.271Z,3.30
2022-11-27T20:29:08.664Z,3.20
2022-11-27T20:34:15.882Z,3.20
2022-11-27T20:39:27.234Z,3.10
2022-11-27T20:44:33.312Z,3.10
2022-11-27T20:49:52.948Z,3.00
2022-11-27T20:54:58.094Z,3.00
2022-11-27T20:59:58.126Z,3.00
2022-11-27T21:04:58.902Z,2.98
2022-11-27T21:10:02.254Z,2.90
2022-11-27T21:15:03.224Z,2.90
2022-11-27T21:20:12.497Z,2.90
2022-11-27T21:25:15.017Z,2.90
2022-11-27T21:30:20.734Z,2.90
2022-11-27T21:35:32.698Z,2.90
2022-11-27T21:40:36.796Z,2.82
2022-11-27T21:45:39.435Z,2.80
2022-11-27T21:50:42.020Z,2.80
2022-11-27T21:55:46.274Z,2.80
2022-11-27T22:00:46.402Z,2.80
2022-11-27T22:05:46.002Z,2.80
2022-11-27T22:10:47.349Z,2.70
2022-11-27T22:15:47.752Z,2.70
2022-11-27T22:20:53.895Z,2.70
2022-11-27T22:25:55.883Z,2.68
2022-11-27T22:30:58.884Z,2.62
2022-11-27T22:36:12.926Z,2.60
2022-11-27T22:41:27.182Z,2.60
2022-11-27T22:46:32.974Z,2.60
2022-11-27T22:51:38.241Z,2.60
2022-11-27T22:56:43.033Z,2.60
2022-11-27T23:01:43.669Z,2.60
2022-11-27T23:06:45.987Z,2.60
2022-11-27T23:11:45.305Z,2.60
2022-11-27T23:16:44.433Z,2.60
2022-11-27T23:21:43.473Z,2.70
2022-11-27T23:26:43.019Z,2.70
2022-11-27T23:31:44.088Z,2.70
2022-11-27T23:36:43.975Z,2.70
2022-11-27T23:41:46.430Z,2.66
2022-11-27T23:46:48.154Z,2.66
2022-11-27T23:51:48.400Z,2.68
2022-11-27T23:56:51.693Z,2.70
